createdAt,value
2022-11-14T00:01:22.438Z,16.00
2022-11-14T00:03:51.156Z,15.60
2022-11-14T00:06:19.005Z,15.70
2022-11-14T00:08:46.547Z,15.40
2022-11-14T00:11:14.088Z,15.30
2022-11-14T00:13:41.637Z,15.40
2022-11-14T00:16:09.165Z,14.90
2022-11-14T00:18:36.735Z,14.60
2022-11-14T00:21:04.515Z,14.10
2022-11-14T00:23:32.099Z,13.40
2022-11-14T00:25:59.627Z,12.80
2022-11-14T00:28:27.350Z,12.80
2022-11-14T00:30:55.116Z,11.40
2022-11-14T00:33:22.833Z,12.80
2022-11-14T00:35:52.447Z,12.60
2022-11-14T00:38:20.070Z,13.10
2022-11-14T00:40:48.414Z,12.20
2022-11-14T00:43:15.969Z,12.10
2022-11-14T00:45:47.686Z,11.40
2022-11-14T00:48:17.368Z,11.70
2022-11-14T00:50:44.951Z,11.10
2022-11-14T00:53:13.072Z,10.60
2022-11-14T00:55:42.522Z,10.60
2022-11-14T00:58:10.123Z,11.70
2022-11-14T01:00:39.207Z,11.70
2022-11-14T01:03:07.229Z,11.40
2022-11-14T01:05:41.357Z,11.00
2022-11-14T01:08:09.100Z,12.20
2022-11-14T01:10:45.689Z,11.50
2022-11-14T01:13:14.471Z,12.00
2022-11-14T01:15:46.503Z,11.60
2022-11-14T01:18:18.338Z,11.10
2022-11-14T01:20:48.297Z,11.80
2022-11-14T01:23:16.893Z,10.70
2022-11-14T01:25:44.918Z,11.30
2022-11-14T01:28:19.542Z,11.00
2022-11-14T01:30:47.150Z,11.80
2022-11-14T01:33:14.706Z,11.30
2022-11-14T01:35:42.329Z,11.60
2022-11-14T01:38:14.943Z,13.00
2022-11-14T01:40:45.425Z,12.00
2022-11-14T01:43:19.081Z,12.10
2022-11-14T01:46:08.662Z,12.40
2022-11-14T01:48:44.573Z,12.70
2022-11-14T01:51:22.728Z,13.00
2022-11-14T01:53:53.218Z,13.10
2022-11-14T01:56:32.072Z,12.80
2022-11-14T01:59:07.751Z,13.30
2022-11-14T02:01:41.171Z,12.60
2022-11-14T02:04:14.155Z,13.60
2022-11-14T02:06:43.498Z,13.20
2022-11-14T02:09:11.130Z,13.30
2022-11-14T02:11:42.584Z,13.40
2022-11-14T02:14:10.883Z,12.00
2022-11-14T02:16:41.476Z,13.50
2022-11-14T02:19:09.799Z,12.70
2022-11-14T02:21:37.306Z,12.50
2022-11-14T02:24:10.700Z,12.30
2022-11-14T02:26:39.077Z,12.20
2022-11-14T02:29:08.794Z,11.90
2022-11-14T02:31:37.047Z,12.00
2022-11-14T02:34:04.599Z,11.60
2022-11-14T02:36:32.150Z,12.00
2022-11-14T02:38:59.713Z,11.20
2022-11-14T02:41:27.239Z,11.70
2022-11-14T02:43:54.761Z,11.50
2022-11-14T02:46:22.291Z,11.40
2022-11-14T02:48:49.831Z,11.60
2022-11-14T02:51:17.484Z,10.60
2022-11-14T02:53:45.099Z,10.80
2022-11-14T02:56:12.632Z,10.30
2022-11-14T02:58:40.201Z,10.10
2022-11-14T03:01:20.374Z,11.00
2022-11-14T03:03:48.975Z,10.20
2022-11-14T03:06:16.555Z,9.70
2022-11-14T03:08:44.082Z,9.30
2022-11-14T03:11:11.634Z,9.00
2022-11-14T03:13:39.187Z,9.10
2022-11-14T03:16:10.113Z,9.50
2022-11-14T03:18:38.186Z,9.90
2022-11-14T03:21:11.848Z,9.50
2022-11-14T03:23:39.861Z,8.50
2022-11-14T03:26:09.958Z,8.90
2022-11-14T03:28:38.887Z,8.70
2022-11-14T03:31:08.905Z,10.10
2022-11-14T03:33:36.604Z,8.40
2022-11-14T03:36:05.932Z,7.90
2022-11-14T03:38:34.599Z,8.00
2022-11-14T03:41:02.246Z,9.90
2022-11-14T03:43:34.649Z,7.10
2022-11-14T03:46:03.210Z,8.90
2022-11-14T03:48:32.340Z,8.40
2022-11-14T03:51:00.368Z,7.20
2022-11-14T03:53:29.019Z,7.90
2022-11-14T03:55:56.668Z,6.90
2022-11-14T03:58:24.398Z,6.40
2022-11-14T04:00:52.043Z,7.60
2022-11-14T04:03:19.575Z,7.30
2022-11-14T04:05:47.171Z,7.00
2022-11-14T04:08:14.759Z,6.40
2022-11-14T04:10:42.450Z,6.50
2022-11-14T04:13:10.022Z,6.00
2022-11-14T04:15:37.579Z,6.80
2022-11-14T04:18:05.217Z,6.30
2022-11-14T04:20:32.724Z,6.60
2022-11-14T04:23:00.559Z,6.40
2022-11-14T04:25:28.102Z,6.70
2022-11-14T04:27:55.703Z,6.40
2022-11-14T04:30:23.231Z,6.90
2022-11-14T04:32:50.816Z,6.00
2022-11-14T04:35:18.474Z,5.80
2022-11-14T04:37:46.043Z,5.60
2022-11-14T04:40:13.686Z,6.00
2022-11-14T04:42:41.206Z,4.90
2022-11-14T04:45:09.278Z,4.90
2022-11-14T04:47:37.185Z,5.00
2022-11-14T04:50:05.677Z,5.10
2022-11-14T04:52:33.251Z,4.50
2022-11-14T04:55:00.810Z,5.30
2022-11-14T04:57:28.465Z,5.80
2022-11-14T04:59:56.064Z,4.30
2022-11-14T05:02:23.590Z,5.00
2022-11-14T05:04:51.099Z,6.60
2022-11-14T05:07:18.812Z,5.70
2022-11-14T05:09:46.484Z,4.70
2022-11-14T05:12:14.048Z,5.50
2022-11-14T05:14:41.567Z,4.70
2022-11-14T05:17:09.099Z,4.90
2022-11-14T05:19:36.954Z,4.70
2022-11-14T05:22:04.487Z,4.50
2022-11-14T05:24:32.100Z,4.30
2022-11-14T05:26:59.626Z,4.40
2022-11-14T05:29:27.228Z,8.60
2022-11-14T05:31:54.831Z,7.60
2022-11-14T05:34:22.376Z,5.20
2022-11-14T05:36:49.914Z,5.20
2022-11-14T05:39:17.492Z,4.70
2022-11-14T05:41:45.005Z,14.40
2022-11-14T05:44:12.529Z,6.20
2022-11-14T05:46:40.152Z,4.70
2022-11-14T05:49:07.670Z,6.10
2022-11-14T05:51:35.203Z,5.30
2022-11-14T05:54:02.873Z,5.60
2022-11-14T05:56:30.470Z,6.70
2022-11-14T05:58:58.071Z,6.40
2022-11-14T06:01:25.862Z,5.50
2022-11-14T06:03:53.789Z,5.90
2022-11-14T06:06:22.320Z,6.00
2022-11-14T06:08:49.946Z,6.40
2022-11-14T06:11:20.603Z,5.80
2022-11-14T06:13:48.689Z,5.80
2022-11-14T06:16:18.722Z,7.10
2022-11-14T06:18:46.386Z,7.20
2022-11-14T06:21:17.574Z,6.20
2022-11-14T06:23:46.007Z,5.90
2022-11-14T06:26:25.196Z,4.90
2022-11-14T06:28:53.999Z,5.40
2022-11-14T06:31:22.484Z,5.40
2022-11-14T06:33:50.962Z,5.90
2022-11-14T06:36:21.511Z,5.60
2022-11-14T06:38:49.077Z,6.60
2022-11-14T06:41:22.363Z,5.50
2022-11-14T06:43:55.314Z,5.60
2022-11-14T06:46:23.649Z,5.50
2022-11-14T06:48:57.121Z,6.00
2022-11-14T06:51:24.723Z,7.00
2022-11-14T06:53:58.985Z,6.80
2022-11-14T06:56:26.713Z,6.20
2022-11-14T06:58:54.412Z,6.00
2022-11-14T07:01:25.979Z,5.90
2022-11-14T07:03:54.208Z,5.00
2022-11-14T07:06:26.726Z,5.70
2022-11-14T07:08:56.247Z,6.50
2022-11-14T07:11:29.766Z,6.70
2022-11-14T07:14:01.081Z,8.90
2022-11-14T07:16:37.424Z,6.10
2022-11-14T07:19:11.057Z,5.90
2022-11-14T07:21:42.299Z,5.90
2022-11-14T07:24:13.568Z,5.50
2022-11-14T07:26:52.916Z,7.20
2022-11-14T07:29:36.537Z,5.30
2022-11-14T07:32:07.632Z,5.80
2022-11-14T07:34:40.327Z,6.00
2022-11-14T07:37:08.356Z,5.50
2022-11-14T07:39:36.210Z,5.30
2022-11-14T07:42:10.955Z,5.60
2022-11-14T07:44:43.433Z,5.60
2022-11-14T07:47:11.246Z,5.50
2022-11-14T07:49:48.409Z,5.30
2022-11-14T07:52:24.881Z,5.20
2022-11-14T07:54:52.550Z,5.10
2022-11-14T07:57:22.204Z,5.20
2022-11-14T07:59:49.767Z,5.10
2022-11-14T08:02:17.390Z,5.20
2022-11-14T08:04:45.490Z,5.40
2022-11-14T08:07:16.777Z,4.90
2022-11-14T08:09:55.288Z,5.20
2022-11-14T08:12:31.166Z,5.30
2022-11-14T08:15:00.705Z,4.70
2022-11-14T08:17:30.792Z,4.30
2022-11-14T08:19:58.496Z,6.20
2022-11-14T08:22:26.695Z,6.20
2022-11-14T08:24:54.429Z,5.40
2022-11-14T08:27:23.114Z,5.50
2022-11-14T08:29:53.631Z,5.20
2022-11-14T08:32:21.489Z,5.90
2022-11-14T08:34:49.351Z,4.00
2022-11-14T08:37:17.170Z,4.10
2022-11-14T08:40:28.508Z,3.80
2022-11-14T08:43:02.083Z,4.70
2022-11-14T08:45:30.544Z,4.10
2022-11-14T08:47:59.011Z,4.00
2022-11-14T08:50:27.652Z,3.90
2022-11-14T08:53:01.650Z,3.90
2022-11-14T08:55:29.366Z,4.70
2022-11-14T08:57:56.975Z,4.60
2022-11-14T09:00:24.651Z,4.10
2022-11-14T09:02:52.257Z,4.20
2022-11-14T09:05:19.890Z,4.20
2022-11-14T09:07:47.450Z,3.50
2022-11-14T09:10:16.027Z,3.80
2022-11-14T09:12:43.584Z,4.60
2022-11-14T09:15:11.834Z,3.70
2022-11-14T09:17:39.387Z,6.90
2022-11-14T09:20:07.222Z,4.80
2022-11-14T09:22:34.911Z,3.80
2022-11-14T09:25:03.078Z,3.90
2022-11-14T09:27:32.802Z,3.40
2022-11-14T09:30:00.490Z,5.20
2022-11-14T09:32:28.061Z,4.20
2022-11-14T09:34:55.703Z,5.60
2022-11-14T09:37:23.394Z,4.70
2022-11-14T09:39:51.022Z,5.60
2022-11-14T09:42:37.502Z,5.60
2022-11-14T09:45:14.962Z,6.10
2022-11-14T09:47:54.708Z,7.00
2022-11-14T09:50:28.726Z,7.60
2022-11-14T09:52:59.283Z,7.20
2022-11-14T09:55:37.347Z,7.50
2022-11-14T09:58:26.833Z,9.30
2022-11-14T10:01:09.289Z,9.80
2022-11-14T10:03:58.572Z,9.80
2022-11-14T10:06:45.161Z,9.10
2022-11-14T10:09:55.134Z,13.30
2022-11-14T10:12:38.663Z,10.30
2022-11-14T10:15:08.748Z,10.80
2022-11-14T10:18:09.337Z,11.20
2022-11-14T10:20:49.747Z,12.60
2022-11-14T10:23:42.666Z,27.70
2022-11-14T10:26:31.078Z,12.60
2022-11-14T10:29:30.606Z,11.70
2022-11-14T10:32:10.655Z,9.90
2022-11-14T10:34:48.650Z,8.20
2022-11-14T10:37:32.399Z,10.10
2022-11-14T10:40:14.819Z,10.20
2022-11-14T10:42:47.742Z,9.60
2022-11-14T10:45:34.030Z,8.30
2022-11-14T10:48:09.868Z,8.70
2022-11-14T10:50:49.989Z,7.50
2022-11-14T10:53:44.325Z,8.20
2022-11-14T10:56:14.143Z,7.50
2022-11-14T10:58:49.051Z,7.10
2022-11-14T11:01:41.576Z,6.60
2022-11-14T11:04:20.847Z,6.80
2022-11-14T11:06:58.111Z,7.30
2022-11-14T11:09:47.682Z,7.20
2022-11-14T11:12:21.649Z,7.10
2022-11-14T11:15:07.285Z,7.00
2022-11-14T11:17:41.728Z,7.20
2022-11-14T11:20:33.438Z,8.40
2022-11-14T11:23:05.613Z,7.70
2022-11-14T11:25:34.599Z,6.60
2022-11-14T11:28:16.274Z,6.80
2022-11-14T11:31:04.459Z,6.80
2022-11-14T11:33:34.426Z,8.20
2022-11-14T11:36:12.334Z,6.80
2022-11-14T11:38:41.218Z,7.40
2022-11-14T11:44:20.786Z,5.90
2022-11-14T11:47:08.740Z,7.90
2022-11-14T11:49:54.516Z,7.60
2022-11-14T11:52:40.366Z,8.40
2022-11-14T11:55:34.030Z,7.50
2022-11-14T11:58:04.217Z,8.60
2022-11-14T12:00:32.345Z,9.80
2022-11-14T12:03:01.022Z,8.70
2022-11-14T12:06:08.705Z,8.60
2022-11-14T12:08:44.216Z,8.60
2022-11-14T12:11:18.513Z,10.30
2022-11-14T12:13:52.799Z,9.80
2022-11-14T12:16:46.951Z,9.30
2022-11-14T12:19:47.472Z,12.40
2022-11-14T12:22:40.264Z,9.10
2022-11-14T12:25:39.750Z,9.60
2022-11-14T12:28:43.501Z,9.10
2022-11-14T12:31:16.852Z,9.60
2022-11-14T12:33:53.823Z,8.40
2022-11-14T12:36:30.486Z,8.70
2022-11-14T12:38:59.854Z,8.70
2022-11-14T12:41:31.221Z,8.70
2022-11-14T12:44:30.869Z,8.70
2022-11-14T12:47:09.343Z,10.20
2022-11-14T12:49:59.006Z,9.00
2022-11-14T12:52:45.682Z,9.00
2022-11-14T12:55:29.177Z,8.40
2022-11-14T12:58:09.601Z,8.70
2022-11-14T13:01:10.913Z,8.60
2022-11-14T13:04:11.902Z,8.70
2022-11-14T13:06:53.549Z,9.80
2022-11-14T13:09:40.835Z,10.30
2022-11-14T13:12:48.385Z,9.80
2022-11-14T13:15:49.116Z,9.90
2022-11-14T13:18:39.894Z,12.60
2022-11-14T13:21:45.469Z,12.30
2022-11-14T13:24:18.444Z,11.00
2022-11-14T13:26:47.199Z,11.10
2022-11-14T13:29:46.872Z,11.80
2022-11-14T13:32:49.520Z,10.00
2022-11-14T13:35:49.398Z,11.00
2022-11-14T13:38:50.640Z,13.20
2022-11-14T13:41:24.339Z,12.70
2022-11-14T13:44:24.568Z,13.60
2022-11-14T13:47:08.088Z,12.90
2022-11-14T13:49:56.365Z,12.10
2022-11-14T13:52:30.190Z,11.90
2022-11-14T13:54:58.517Z,12.10
2022-11-14T13:57:42.393Z,14.50
2022-11-14T14:00:20.775Z,14.70
2022-11-14T14:03:21.759Z,13.20
2022-11-14T14:06:05.644Z,12.60
2022-11-14T14:09:09.075Z,13.20
2022-11-14T14:11:51.948Z,12.10
2022-11-14T14:14:52.188Z,12.70
2022-11-14T14:17:41.790Z,12.10
2022-11-14T14:20:36.761Z,12.00
2022-11-14T14:23:42.470Z,11.80
2022-11-14T14:26:46.193Z,11.20
2022-11-14T14:29:30.779Z,12.40
2022-11-14T14:32:16.671Z,11.60
2022-11-14T14:34:45.904Z,10.40
2022-11-14T14:37:23.799Z,11.20
2022-11-14T14:40:22.492Z,10.60
2022-11-14T14:42:51.597Z,12.20
2022-11-14T14:45:22.281Z,11.90
2022-11-14T14:48:00.154Z,13.60
2022-11-14T14:50:38.892Z,11.70
2022-11-14T14:53:07.513Z,12.20
2022-11-14T14:55:36.579Z,11.70
2022-11-14T14:58:23.194Z,13.10
2022-11-14T15:00:59.448Z,15.40
2022-11-14T15:03:39.972Z,14.20
2022-11-14T15:06:21.066Z,13.90
2022-11-14T15:08:49.398Z,12.10
2022-11-14T15:11:17.083Z,12.70
2022-11-14T15:13:45.989Z,12.80
2022-11-14T15:16:13.773Z,12.90
2022-11-14T15:18:41.479Z,16.00
2022-11-14T15:21:14.971Z,16.40
2022-11-14T15:23:43.289Z,14.40
2022-11-14T15:26:18.639Z,14.50
2022-11-14T15:28:46.221Z,15.60
2022-11-14T15:31:22.046Z,14.50
2022-11-14T15:34:22.567Z,16.50
2022-11-14T15:37:08.787Z,16.00
2022-11-14T15:39:37.787Z,15.70
2022-11-14T15:42:14.055Z,15.40
2022-11-14T15:44:43.010Z,29.80
2022-11-14T15:47:20.641Z,15.70
2022-11-14T15:50:11.207Z,15.60
2022-11-14T15:52:46.231Z,16.90
2022-11-14T15:55:17.966Z,17.60
2022-11-14T15:57:51.979Z,17.10
2022-11-14T16:00:28.424Z,26.50
2022-11-14T16:03:03.669Z,17.30
2022-11-14T16:05:41.785Z,17.50
2022-11-14T16:08:15.431Z,18.60
2022-11-14T16:10:57.090Z,18.90
2022-11-14T16:13:24.803Z,16.90
2022-11-14T16:15:54.499Z,22.30
2022-11-14T16:18:22.202Z,18.70
2022-11-14T16:20:51.542Z,15.60
2022-11-14T16:23:19.092Z,15.80
2022-11-14T16:25:47.166Z,18.50
2022-11-14T16:28:14.698Z,16.40
2022-11-14T16:30:42.261Z,28.70
2022-11-14T16:33:09.814Z,16.90
2022-11-14T16:35:37.364Z,24.70
2022-11-14T16:38:04.910Z,19.00
2022-11-14T16:40:33.014Z,16.60
2022-11-14T16:43:01.372Z,18.40
2022-11-14T16:45:28.959Z,16.10
2022-11-14T16:47:56.494Z,20.30
2022-11-14T16:50:24.027Z,15.80
2022-11-14T16:52:51.575Z,15.40
2022-11-14T16:55:19.132Z,14.80
2022-11-14T16:57:46.682Z,16.60
2022-11-14T17:00:15.311Z,15.60
2022-11-14T17:02:42.938Z,15.90
2022-11-14T17:05:10.692Z,16.90
2022-11-14T17:07:38.399Z,15.70
2022-11-14T17:10:07.507Z,13.20
2022-11-14T17:12:35.382Z,14.80
2022-11-14T17:15:03.020Z,16.20
2022-11-14T17:17:31.520Z,17.60
2022-11-14T17:19:59.997Z,14.80
2022-11-14T17:22:28.178Z,14.50
2022-11-14T17:24:55.733Z,16.90
2022-11-14T17:27:23.315Z,18.00
2022-11-14T17:29:51.773Z,15.50
2022-11-14T17:32:19.331Z,17.60
2022-11-14T17:34:46.913Z,17.90
2022-11-14T17:37:14.490Z,16.90
2022-11-14T17:39:42.042Z,17.70
2022-11-14T17:42:09.919Z,16.50
2022-11-14T17:44:37.603Z,17.60
2022-11-14T17:47:05.270Z,16.30
2022-11-14T17:49:32.859Z,17.30
2022-11-14T17:52:00.539Z,21.60
2022-11-14T17:54:28.126Z,23.30
2022-11-14T17:56:57.413Z,18.30
2022-11-14T17:59:25.212Z,16.80
2022-11-14T18:01:55.415Z,17.00
2022-11-14T18:04:23.157Z,16.00
2022-11-14T18:06:50.945Z,16.70
2022-11-14T18:09:18.740Z,16.10
2022-11-14T18:11:46.592Z,18.50
2022-11-14T18:14:15.384Z,19.80
2022-11-14T18:17:10.413Z,20.10
2022-11-14T18:19:30.878Z,17.40
2022-11-14T18:21:58.509Z,19.60
2022-11-14T18:24:26.206Z,23.40
2022-11-14T18:26:55.385Z,22.10
2022-11-14T18:29:23.106Z,25.30
2022-11-14T18:31:50.735Z,24.00
2022-11-14T18:34:19.870Z,19.70
2022-11-14T18:36:47.704Z,21.10
2022-11-14T18:39:15.314Z,22.40
2022-11-14T18:41:42.954Z,20.70
2022-11-14T18:44:10.583Z,21.20
2022-11-14T18:46:39.629Z,22.50
2022-11-14T18:49:07.472Z,22.30
2022-11-14T18:51:41.935Z,21.20
2022-11-14T18:54:16.906Z,22.80
2022-11-14T18:56:44.752Z,22.00
2022-11-14T18:59:12.745Z,23.20
2022-11-14T19:01:40.640Z,25.00
2022-11-14T19:04:10.434Z,23.00
2022-11-14T19:06:39.994Z,21.70
2022-11-14T19:09:15.891Z,21.30
2022-11-14T19:11:59.888Z,23.10
2022-11-14T19:14:27.563Z,22.10
2022-11-14T19:16:55.234Z,23.80
2022-11-14T19:19:22.947Z,22.40
2022-11-14T19:21:51.411Z,20.70
2022-11-14T19:24:19.133Z,24.10
2022-11-14T19:26:47.066Z,22.10
2022-11-14T19:29:14.755Z,24.30
2022-11-14T19:31:43.240Z,21.20
2022-11-14T19:34:11.014Z,19.30
2022-11-14T19:36:58.867Z,19.40
2022-11-14T19:39:26.349Z,19.60
2022-11-14T19:41:54.084Z,20.90
2022-11-14T19:44:21.703Z,21.20
2022-11-14T19:46:49.340Z,21.00
2022-11-14T19:49:17.033Z,21.80
2022-11-14T19:51:44.738Z,24.70
2022-11-14T19:54:12.555Z,20.20
2022-11-14T19:56:40.380Z,58.20
2022-11-14T19:59:14.214Z,28.70
2022-11-14T20:01:43.446Z,22.20
2022-11-14T20:04:13.602Z,18.40
2022-11-14T20:06:41.967Z,18.30
2022-11-14T20:09:12.642Z,17.10
2022-11-14T20:11:41.333Z,21.00
2022-11-14T20:14:12.078Z,20.50
2022-11-14T20:16:39.654Z,18.00
2022-11-14T20:19:07.242Z,18.60
2022-11-14T20:21:35.300Z,18.60
2022-11-14T20:24:03.482Z,17.20
2022-11-14T20:26:31.066Z,19.00
2022-11-14T20:28:58.907Z,16.30
2022-11-14T20:31:29.750Z,17.10
2022-11-14T20:33:57.355Z,17.20
2022-11-14T20:36:29.450Z,15.70
2022-11-14T20:39:03.302Z,16.40
2022-11-14T20:41:30.976Z,16.50
2022-11-14T20:43:58.835Z,17.10
2022-11-14T20:46:26.474Z,16.00
2022-11-14T20:48:53.994Z,18.90
2022-11-14T20:51:24.111Z,15.70
2022-11-14T20:53:54.709Z,15.90
2022-11-14T20:56:23.083Z,16.70
2022-11-14T20:58:54.032Z,15.40
2022-11-14T21:01:21.936Z,18.50
2022-11-14T21:03:49.597Z,16.50
2022-11-14T21:06:17.787Z,15.70
2022-11-14T21:08:45.322Z,15.00
2022-11-14T21:11:16.471Z,15.10
2022-11-14T21:14:00.508Z,17.40
2022-11-14T21:16:34.362Z,14.70
2022-11-14T21:19:03.752Z,15.20
2022-11-14T21:21:35.169Z,15.20
2022-11-14T21:24:03.617Z,14.90
2022-11-14T21:26:34.501Z,14.60
2022-11-14T21:29:05.118Z,15.00
2022-11-14T21:31:40.544Z,15.50
2022-11-14T21:34:12.322Z,13.60
2022-11-14T21:36:45.846Z,14.80
2022-11-14T21:39:16.877Z,15.60
2022-11-14T21:41:48.251Z,16.30
2022-11-14T21:44:17.787Z,16.00
2022-11-14T21:46:49.670Z,16.40
2022-11-14T21:49:17.599Z,14.10
2022-11-14T21:51:45.169Z,14.60
2022-11-14T21:54:12.753Z,19.30
2022-11-14T21:56:40.425Z,17.50
2022-11-14T21:59:21.487Z,14.90
2022-11-14T22:02:06.795Z,14.80
2022-11-14T22:04:35.087Z,14.40
2022-11-14T22:07:05.696Z,14.90
2022-11-14T22:09:34.891Z,13.80
2022-11-14T22:12:02.758Z,14.80
2022-11-14T22:14:30.310Z,15.30
2022-11-14T22:16:58.472Z,15.20
2022-11-14T22:19:26.308Z,15.50
2022-11-14T22:21:54.592Z,15.40
2022-11-14T22:24:22.571Z,14.70
2022-11-14T22:26:50.142Z,13.40
2022-11-14T22:29:17.744Z,14.50
2022-11-14T22:31:45.328Z,13.60
2022-11-14T22:34:12.875Z,13.90
2022-11-14T22:36:40.943Z,13.70
2022-11-14T22:39:08.483Z,14.90
2022-11-14T22:41:36.071Z,16.10
2022-11-14T22:44:03.741Z,14.30
2022-11-14T22:46:31.280Z,17.10
2022-11-14T22:48:58.986Z,15.00
2022-11-14T22:51:28.108Z,14.60
2022-11-14T22:53:57.926Z,14.80
2022-11-14T22:56:28.932Z,14.00
2022-11-14T22:58:59.470Z,13.80
2022-11-14T23:01:28.813Z,15.20
2022-11-14T23:04:01.967Z,14.50
2022-11-14T23:06:31.811Z,16.20
2022-11-14T23:09:01.170Z,15.30
2022-11-14T23:11:30.652Z,14.90
2022-11-14T23:14:00.030Z,15.30
2022-11-14T23:16:33.379Z,15.40
2022-11-14T23:19:03.537Z,16.70
2022-11-14T23:21:35.826Z,16.00
2022-11-14T23:24:06.344Z,16.50
2022-11-14T23:26:34.471Z,16.00
2022-11-14T23:29:02.575Z,15.10
2022-11-14T23:31:30.129Z,15.80
2022-11-14T23:33:58.214Z,16.70
2022-11-14T23:36:25.872Z,15.80
2022-11-14T23:38:53.900Z,16.30
2022-11-14T23:41:25.437Z,15.60
2022-11-14T23:43:53.088Z,20.60
2022-11-14T23:46:20.699Z,17.50
2022-11-14T23:48:48.777Z,15.60
2022-11-14T23:51:17.454Z,16.60
2022-11-14T23:53:46.752Z,17.40
2022-11-14T23:56:16.338Z,17.10
2022-11-14T23:58:43.969Z,17.10
